sensor_id;sensor_type;location;lat;lon;timestamp;temperature;humidity
60309;DHT22;50313;52.894;6.492;2023-03-01T00:01:14;-1.30;99.90
60309;DHT22;50313;52.894;6.492;2023-03-01T00:03:41;-1.40;99.90
60309;DHT22;50313;52.894;6.492;2023-03-01T00:06:07;-1.40;99.90
60309;DHT22;50313;52.894;6.492;2023-03-01T00:08:33;-1.40;99.90
60309;DHT22;50313;52.894;6.492;2023-03-01T00:11:18;-1.40;99.90
60309;DHT22;50313;52.894;6.492;2023-03-01T00:13:45;-1.50;99.90
60309;DHT22;50313;52.894;6.492;2023-03-01T00:16:23;-1.50;99.90
60309;DHT22;50313;52.894;6.492;2023-03-01T00:18:49;-1.50;99.90
60309;DHT22;50313;52.894;6.492;2023-03-01T00:21:16;-1.50;99.90
60309;DHT22;50313;52.894;6.492;2023-03-01T00:23:43;-1.50;99.90
60309;DHT22;50313;52.894;6.492;2023-03-01T00:26:11;-1.50;99.90
60309;DHT22;50313;52.894;6.492;2023-03-01T00:28:38;-1.60;99.90
60309;DHT22;50313;52.894;6.492;2023-03-01T00:31:13;-1.70;99.90
60309;DHT22;50313;52.894;6.492;2023-03-01T00:33:39;-1.70;99.90
60309;DHT22;50313;52.894;6.492;2023-03-01T00:36:05;-1.70;99.90
60309;DHT22;50313;52.894;6.492;2023-03-01T00:38:44;-1.60;99.90
60309;DHT22;50313;52.894;6.492;2023-03-01T00:41:12;-1.60;99.90
60309;DHT22;50313;52.894;6.492;2023-03-01T00:43:38;-1.60;99.90
60309;DHT22;50313;52.894;6.492;2023-03-01T00:46:06;-1.60;99.90
60309;DHT22;50313;52.894;6.492;2023-03-01T00:48:32;-1.60;99.90
60309;DHT22;50313;52.894;6.492;2023-03-01T00:51:04;-1.50;99.90
60309;DHT22;50313;52.894;6.492;2023-03-01T00:53:30;-1.50;99.90
60309;DHT22;50313;52.894;6.492;2023-03-01T00:55:57;-1.50;99.90
60309;DHT22;50313;52.894;6.492;2023-03-01T00:58:23;-1.50;99.90
60309;DHT22;50313;52.894;6.492;2023-03-01T01:00:49;-1.60;99.90
60309;DHT22;50313;52.894;6.492;2023-03-01T01:03:15;-1.60;99.90
60309;DHT22;50313;52.894;6.492;2023-03-01T01:05:40;-1.60;99.90
60309;DHT22;50313;52.894;6.492;2023-03-01T01:08:06;-1.60;99.90
60309;DHT22;50313;52.894;6.492;2023-03-01T01:10:34;-1.60;99.90
60309;DHT22;50313;52.894;6.492;2023-03-01T01:13:00;-1.60;99.90
60309;DHT22;50313;52.894;6.492;2023-03-01T01:15:26;-1.60;99.90
60309;DHT22;50313;52.894;6.492;2023-03-01T01:17:52;-1.50;99.90
60309;DHT22;50313;52.894;6.492;2023-03-01T01:20:18;-1.50;99.90
60309;DHT22;50313;52.894;6.492;2023-03-01T01:22:44;-1.50;99.90
60309;DHT22;50313;52.894;6.492;2023-03-01T01:25:09;-1.40;99.90
60309;DHT22;50313;52.894;6.492;2023-03-01T01:27:36;-1.40;99.90
60309;DHT22;50313;52.894;6.492;2023-03-01T01:30:03;-1.30;99.90
60309;DHT22;50313;52.894;6.492;2023-03-01T01:32:29;-1.30;99.90
60309;DHT22;50313;52.894;6.492;2023-03-01T01:34:55;-1.30;99.90
60309;DHT22;50313;52.894;6.492;2023-03-01T01:37:21;-1.20;99.90
60309;DHT22;50313;52.894;6.492;2023-03-01T01:39:47;-1.20;99.90
60309;DHT22;50313;52.894;6.492;2023-03-01T01:42:17;-1.10;99.90
60309;DHT22;50313;52.894;6.492;2023-03-01T01:44:47;-1.10;99.90
60309;DHT22;50313;52.894;6.492;2023-03-01T01:47:19;-1.10;99.90
60309;DHT22;50313;52.894;6.492;2023-03-01T01:49:53;-1.10;99.90
60309;DHT22;50313;52.894;6.492;2023-03-01T01:52:29;-1.10;99.90
60309;DHT22;50313;52.894;6.492;2023-03-01T01:57:38;-1.20;99.90
60309;DHT22;50313;52.894;6.492;2023-03-01T02:00:11;-1.20;99.90
60309;DHT22;50313;52.894;6.492;2023-03-01T02:02:37;-1.30;99.90
60309;DHT22;50313;52.894;6.492;2023-03-01T02:05:26;-1.30;99.90
60309;DHT22;50313;52.894;6.492;2023-03-01T02:07:54;-1.40;99.90
60309;DHT22;50313;52.894;6.492;2023-03-01T02:10:22;-1.40;99.90
60309;DHT22;50313;52.894;6.492;2023-03-01T02:12:49;-1.50;99.90
60309;DHT22;50313;52.894;6.492;2023-03-01T02:15:15;-1.50;99.90
60309;DHT22;50313;52.894;6.492;2023-03-01T02:17:41;-1.50;99.90
60309;DHT22;50313;52.894;6.492;2023-03-01T02:22:39;-1.60;99.90
60309;DHT22;50313;52.894;6.492;2023-03-01T02:27:51;-1.80;99.90
60309;DHT22;50313;52.894;6.492;2023-03-01T02:30:20;-1.90;99.90
60309;DHT22;50313;52.894;6.492;2023-03-01T02:32:47;-1.90;99.90
60309;DHT22;50313;52.894;6.492;2023-03-01T02:35:16;-2.00;99.90
60309;DHT22;50313;52.894;6.492;2023-03-01T02:37:43;-2.10;99.90
60309;DHT22;50313;52.894;6.492;2023-03-01T02:40:14;-2.10;99.90
60309;DHT22;50313;52.894;6.492;2023-03-01T02:42:54;-2.10;99.90
60309;DHT22;50313;52.894;6.492;2023-03-01T02:45:22;-2.20;99.90
60309;DHT22;50313;52.894;6.492;2023-03-01T02:47:48;-2.20;99.90
60309;DHT22;50313;52.894;6.492;2023-03-01T02:55:22;-2.30;99.90
60309;DHT22;50313;52.894;6.492;2023-03-01T02:57:48;-2.30;99.90
60309;DHT22;50313;52.894;6.492;2023-03-01T03:00:20;-2.30;99.90
60309;DHT22;50313;52.894;6.492;2023-03-01T03:02:51;-2.40;99.90
60309;DHT22;50313;52.894;6.492;2023-03-01T03:05:20;-2.40;99.90
60309;DHT22;50313;52.894;6.492;2023-03-01T03:07:48;-2.40;99.90
60309;DHT22;50313;52.894;6.492;2023-03-01T03:10:18;-2.50;99.90
60309;DHT22;50313;52.894;6.492;2023-03-01T03:12:56;-2.50;99.90
60309;DHT22;50313;52.894;6.492;2023-03-01T03:15:22;-2.50;99.90
60309;DHT22;50313;52.894;6.492;2023-03-01T03:17:48;-2.50;99.90
60309;DHT22;50313;52.894;6.492;2023-03-01T03:22:46;-2.50;99.90
60309;DHT22;50313;52.894;6.492;2023-03-01T03:25:12;-2.50;99.90
60309;DHT22;50313;52.894;6.492;2023-03-01T03:27:39;-2.50;99.90
60309;DHT22;50313;52.894;6.492;2023-03-01T03:30:07;-2.60;99.90
60309;DHT22;50313;52.894;6.492;2023-03-01T03:32:41;-2.60;99.90
60309;DHT22;50313;52.894;6.492;2023-03-01T03:35:09;-2.70;99.90
60309;DHT22;50313;52.894;6.492;2023-03-01T03:37:39;-2.70;99.90
60309;DHT22;50313;52.894;6.492;2023-03-01T03:40:25;-2.70;99.90
60309;DHT22;50313;52.894;6.492;2023-03-01T03:42:50;-2.70;99.90
60309;DHT22;50313;52.894;6.492;2023-03-01T03:45:17;-2.80;99.90
60309;DHT22;50313;52.894;6.492;2023-03-01T03:47:43;-2.80;99.90
60309;DHT22;50313;52.894;6.492;2023-03-01T03:50:11;-2.80;99.90
60309;DHT22;50313;52.894;6.492;2023-03-01T03:52:37;-2.80;99.90
60309;DHT22;50313;52.894;6.492;2023-03-01T03:55:04;-2.80;99.90
60309;DHT22;50313;52.894;6.492;2023-03-01T03:57:35;-2.80;99.90
60309;DHT22;50313;52.894;6.492;2023-03-01T04:00:01;-2.80;99.90
60309;DHT22;50313;52.894;6.492;2023-03-01T04:02:30;-2.80;99.90
60309;DHT22;50313;52.894;6.492;2023-03-01T04:04:55;-2.80;99.90
60309;DHT22;50313;52.894;6.492;2023-03-01T04:07:21;-2.90;99.90
60309;DHT22;50313;52.894;6.492;2023-03-01T04:09:47;-2.90;99.90
60309;DHT22;50313;52.894;6.492;2023-03-01T04:12:13;-2.80;99.90
60309;DHT22;50313;52.894;6.492;2023-03-01T04:14:38;-2.90;99.90
60309;DHT22;50313;52.894;6.492;2023-03-01T04:17:04;-3.00;99.90
60309;DHT22;50313;52.894;6.492;2023-03-01T04:19:33;-3.00;99.90
60309;DHT22;50313;52.894;6.492;2023-03-01T04:22:02;-3.00;99.90
60309;DHT22;50313;52.894;6.492;2023-03-01T04:24:37;-3.00;99.90
60309;DHT22;50313;52.894;6.492;2023-03-01T04:27:03;-3.10;99.90
60309;DHT22;50313;52.894;6.492;2023-03-01T04:29:29;-3.10;99.90
60309;DHT22;50313;52.894;6.492;2023-03-01T04:31:55;-3.10;99.90
60309;DHT22;50313;52.894;6.492;2023-03-01T04:34:20;-3.10;99.90
60309;DHT22;50313;52.894;6.492;2023-03-01T04:36:46;-3.10;99.90
60309;DHT22;50313;52.894;6.492;2023-03-01T04:39:12;-3.10;99.90
60309;DHT22;50313;52.894;6.492;2023-03-01T04:41:38;-3.10;99.90
60309;DHT22;50313;52.894;6.492;2023-03-01T04:44:05;-3.10;99.90
60309;DHT22;50313;52.894;6.492;2023-03-01T04:46:31;-3.20;99.90
60309;DHT22;50313;52.894;6.492;2023-03-01T04:48:57;-3.20;99.90
60309;DHT22;50313;52.894;6.492;2023-03-01T04:51:23;-3.20;99.90
60309;DHT22;50313;52.894;6.492;2023-03-01T04:53:49;-3.20;99.90
60309;DHT22;50313;52.894;6.492;2023-03-01T04:56:16;-3.20;99.90
60309;DHT22;50313;52.894;6.492;2023-03-01T04:58:43;-3.20;99.90
60309;DHT22;50313;52.894;6.492;2023-03-01T05:01:11;-3.20;99.90
60309;DHT22;50313;52.894;6.492;2023-03-01T05:03:44;-3.20;99.90
60309;DHT22;50313;52.894;6.492;2023-03-01T05:06:11;-3.20;99.90
60309;DHT22;50313;52.894;6.492;2023-03-01T05:08:38;-3.20;99.90
60309;DHT22;50313;52.894;6.492;2023-03-01T05:11:04;-3.30;99.90
60309;DHT22;50313;52.894;6.492;2023-03-01T05:13:30;-3.30;99.90
60309;DHT22;50313;52.894;6.492;2023-03-01T05:15:59;-3.30;99.90
60309;DHT22;50313;52.894;6.492;2023-03-01T05:18:27;-3.30;99.90
60309;DHT22;50313;52.894;6.492;2023-03-01T05:21:06;-3.30;99.90
60309;DHT22;50313;52.894;6.492;2023-03-01T05:23:32;-3.20;99.90
60309;DHT22;50313;52.894;6.492;2023-03-01T05:26:02;-3.20;99.90
60309;DHT22;50313;52.894;6.492;2023-03-01T05:28:30;-3.20;99.90
60309;DHT22;50313;52.894;6.492;2023-03-01T05:30:56;-3.30;99.90
60309;DHT22;50313;52.894;6.492;2023-03-01T05:33:23;-3.30;99.90
60309;DHT22;50313;52.894;6.492;2023-03-01T05:35:50;-3.30;99.90
60309;DHT22;50313;52.894;6.492;2023-03-01T05:38:17;-3.30;99.90
60309;DHT22;50313;52.894;6.492;2023-03-01T05:40:47;-3.40;99.90
60309;DHT22;50313;52.894;6.492;2023-03-01T05:43:15;-3.40;99.90
60309;DHT22;50313;52.894;6.492;2023-03-01T05:45:41;-3.40;99.90
60309;DHT22;50313;52.894;6.492;2023-03-01T05:48:07;-3.40;99.90
60309;DHT22;50313;52.894;6.492;2023-03-01T05:50:42;-3.40;99.90
60309;DHT22;50313;52.894;6.492;2023-03-01T05:53:16;-3.40;99.90
60309;DHT22;50313;52.894;6.492;2023-03-01T05:55:43;-3.50;99.90
60309;DHT22;50313;52.894;6.492;2023-03-01T05:58:10;-3.60;99.90
60309;DHT22;50313;52.894;6.492;2023-03-01T06:00:36;-3.60;99.90
60309;DHT22;50313;52.894;6.492;2023-03-01T06:03:02;-3.60;99.90
60309;DHT22;50313;52.894;6.492;2023-03-01T06:05:28;-3.60;99.90
60309;DHT22;50313;52.894;6.492;2023-03-01T06:07:54;-3.60;99.90
60309;DHT22;50313;52.894;6.492;2023-03-01T06:10:21;-3.60;99.90
60309;DHT22;50313;52.894;6.492;2023-03-01T06:12:47;-3.60;99.90
60309;DHT22;50313;52.894;6.492;2023-03-01T06:15:15;-3.60;99.90
60309;DHT22;50313;52.894;6.492;2023-03-01T06:17:44;-3.60;99.90
60309;DHT22;50313;52.894;6.492;2023-03-01T06:20:22;-3.60;99.90
60309;DHT22;50313;52.894;6.492;2023-03-01T06:22:48;-3.60;99.90
60309;DHT22;50313;52.894;6.492;2023-03-01T06:25:23;-3.60;99.90
60309;DHT22;50313;52.894;6.492;2023-03-01T06:27:49;-3.60;99.90
60309;DHT22;50313;52.894;6.492;2023-03-01T06:30:16;-3.60;99.90
60309;DHT22;50313;52.894;6.492;2023-03-01T06:32:42;-3.60;99.90
60309;DHT22;50313;52.894;6.492;2023-03-01T06:35:09;-3.60;99.90
60309;DHT22;50313;52.894;6.492;2023-03-01T06:37:35;-3.50;99.90
60309;DHT22;50313;52.894;6.492;2023-03-01T06:40:02;-3.50;99.90
60309;DHT22;50313;52.894;6.492;2023-03-01T06:42:34;-3.50;99.90
60309;DHT22;50313;52.894;6.492;2023-03-01T06:45:00;-3.50;99.90
60309;DHT22;50313;52.894;6.492;2023-03-01T06:47:26;-3.50;99.90
60309;DHT22;50313;52.894;6.492;2023-03-01T06:49:51;-3.40;99.90
60309;DHT22;50313;52.894;6.492;2023-03-01T06:52:17;-3.40;99.90
60309;DHT22;50313;52.894;6.492;2023-03-01T06:54:43;-3.40;99.90
60309;DHT22;50313;52.894;6.492;2023-03-01T06:57:08;-3.30;99.90
60309;DHT22;50313;52.894;6.492;2023-03-01T06:59:34;-3.30;99.90
60309;DHT22;50313;52.894;6.492;2023-03-01T07:01:59;-3.30;99.90
60309;DHT22;50313;52.894;6.492;2023-03-01T07:04:25;-3.20;99.90
60309;DHT22;50313;52.894;6.492;2023-03-01T07:06:53;-3.20;99.90
60309;DHT22;50313;52.894;6.492;2023-03-01T07:09:23;-3.20;99.90
60309;DHT22;50313;52.894;6.492;2023-03-01T07:11:49;-3.20;99.90
60309;DHT22;50313;52.894;6.492;2023-03-01T07:14:15;-3.10;99.90
60309;DHT22;50313;52.894;6.492;2023-03-01T07:16:41;-3.00;99.90
60309;DHT22;50313;52.894;6.492;2023-03-01T07:19:06;-3.00;99.90
60309;DHT22;50313;52.894;6.492;2023-03-01T07:21:32;-2.80;99.90
60309;DHT22;50313;52.894;6.492;2023-03-01T07:23:57;-2.80;99.90
60309;DHT22;50313;52.894;6.492;2023-03-01T07:26:23;-2.70;99.90
60309;DHT22;50313;52.894;6.492;2023-03-01T07:28:49;-2.70;99.90
60309;DHT22;50313;52.894;6.492;2023-03-01T07:31:14;-2.60;99.90
60309;DHT22;50313;52.894;6.492;2023-03-01T07:33:40;-2.50;99.90
60309;DHT22;50313;52.894;6.492;2023-03-01T07:36:06;-2.40;99.90
60309;DHT22;50313;52.894;6.492;2023-03-01T07:38:31;-2.30;99.90
60309;DHT22;50313;52.894;6.492;2023-03-01T07:41:01;-2.30;99.90
60309;DHT22;50313;52.894;6.492;2023-03-01T07:43:27;-2.20;99.90
60309;DHT22;50313;52.894;6.492;2023-03-01T07:45:53;-2.10;99.90
60309;DHT22;50313;52.894;6.492;2023-03-01T07:48:18;-2.00;99.90
60309;DHT22;50313;52.894;6.492;2023-03-01T07:50:44;-1.90;99.90
60309;DHT22;50313;52.894;6.492;2023-03-01T07:53:10;-1.80;99.90
60309;DHT22;50313;52.894;6.492;2023-03-01T07:55:36;-1.70;99.90
60309;DHT22;50313;52.894;6.492;2023-03-01T07:58:01;-1.60;99.90
60309;DHT22;50313;52.894;6.492;2023-03-01T08:00:27;-1.50;99.90
60309;DHT22;50313;52.894;6.492;2023-03-01T08:02:52;-1.40;99.90
60309;DHT22;50313;52.894;6.492;2023-03-01T08:05:18;-1.30;99.90
60309;DHT22;50313;52.894;6.492;2023-03-01T08:07:44;-1.10;99.90
60309;DHT22;50313;52.894;6.492;2023-03-01T08:10:09;-1.10;99.90
60309;DHT22;50313;52.894;6.492;2023-03-01T08:12:35;-1.00;99.90
60309;DHT22;50313;52.894;6.492;2023-03-01T08:15:01;-0.90;99.90
60309;DHT22;50313;52.894;6.492;2023-03-01T08:17:26;-0.80;99.90
60309;DHT22;50313;52.894;6.492;2023-03-01T08:19:52;-0.70;99.90
60309;DHT22;50313;52.894;6.492;2023-03-01T08:22:17;-0.60;99.90
60309;DHT22;50313;52.894;6.492;2023-03-01T08:24:43;-0.60;99.90
60309;DHT22;50313;52.894;6.492;2023-03-01T08:27:08;-0.50;99.90
60309;DHT22;50313;52.894;6.492;2023-03-01T08:29:34;-0.40;99.90
60309;DHT22;50313;52.894;6.492;2023-03-01T08:32:00;-0.20;99.90
60309;DHT22;50313;52.894;6.492;2023-03-01T08:34:25;-0.10;99.90
60309;DHT22;50313;52.894;6.492;2023-03-01T08:36:51;0.00;99.90
60309;DHT22;50313;52.894;6.492;2023-03-01T08:39:18;0.10;99.90
60309;DHT22;50313;52.894;6.492;2023-03-01T08:41:44;0.30;99.90
60309;DHT22;50313;52.894;6.492;2023-03-01T08:44:10;0.30;99.90
60309;DHT22;50313;52.894;6.492;2023-03-01T08:46:37;0.50;99.90
60309;DHT22;50313;52.894;6.492;2023-03-01T08:49:07;0.50;99.90
60309;DHT22;50313;52.894;6.492;2023-03-01T08:51:34;0.60;99.90
60309;DHT22;50313;52.894;6.492;2023-03-01T08:54:14;0.80;99.90
60309;DHT22;50313;52.894;6.492;2023-03-01T08:56:40;1.00;99.90
60309;DHT22;50313;52.894;6.492;2023-03-01T08:59:06;1.00;99.90
60309;DHT22;50313;52.894;6.492;2023-03-01T09:01:32;1.10;99.90
60309;DHT22;50313;52.894;6.492;2023-03-01T09:03:58;1.30;99.90
60309;DHT22;50313;52.894;6.492;2023-03-01T09:06:23;1.30;99.90
60309;DHT22;50313;52.894;6.492;2023-03-01T09:08:49;1.50;99.90
60309;DHT22;50313;52.894;6.492;2023-03-01T09:11:16;1.60;99.90
60309;DHT22;50313;52.894;6.492;2023-03-01T09:13:43;1.70;99.90
60309;DHT22;50313;52.894;6.492;2023-03-01T09:16:11;1.80;99.90
60309;DHT22;50313;52.894;6.492;2023-03-01T09:18:37;1.90;99.90
60309;DHT22;50313;52.894;6.492;2023-03-01T09:21:16;2.00;99.90
60309;DHT22;50313;52.894;6.492;2023-03-01T09:23:44;2.10;99.90
60309;DHT22;50313;52.894;6.492;2023-03-01T09:26:12;2.20;99.90
60309;DHT22;50313;52.894;6.492;2023-03-01T09:28:39;2.30;99.90
60309;DHT22;50313;52.894;6.492;2023-03-01T09:31:06;2.40;99.90
60309;DHT22;50313;52.894;6.492;2023-03-01T09:33:33;2.50;99.90
60309;DHT22;50313;52.894;6.492;2023-03-01T09:36:07;2.60;99.90
60309;DHT22;50313;52.894;6.492;2023-03-01T09:38:33;2.70;99.90
60309;DHT22;50313;52.894;6.492;2023-03-01T09:41:00;2.80;99.90
60309;DHT22;50313;52.894;6.492;2023-03-01T09:43:37;2.80;99.90
60309;DHT22;50313;52.894;6.492;2023-03-01T09:46:06;3.00;99.90
60309;DHT22;50313;52.894;6.492;2023-03-01T09:48:44;3.10;99.90
60309;DHT22;50313;52.894;6.492;2023-03-01T09:51:32;3.20;99.90
60309;DHT22;50313;52.894;6.492;2023-03-01T09:54:01;3.40;99.90
60309;DHT22;50313;52.894;6.492;2023-03-01T09:56:33;3.40;99.90
60309;DHT22;50313;52.894;6.492;2023-03-01T09:59:40;3.50;99.90
60309;DHT22;50313;52.894;6.492;2023-03-01T10:02:24;3.70;99.90
60309;DHT22;50313;52.894;6.492;2023-03-01T10:04:57;3.80;99.90
60309;DHT22;50313;52.894;6.492;2023-03-01T10:10:28;4.00;99.90
60309;DHT22;50313;52.894;6.492;2023-03-01T10:12:57;4.00;99.90
60309;DHT22;50313;52.894;6.492;2023-03-01T10:15:36;4.10;99.90
60309;DHT22;50313;52.894;6.492;2023-03-01T10:18:09;4.20;99.90
60309;DHT22;50313;52.894;6.492;2023-03-01T10:20:53;4.30;99.90
60309;DHT22;50313;52.894;6.492;2023-03-01T10:23:19;4.40;99.90
60309;DHT22;50313;52.894;6.492;2023-03-01T10:26:08;4.40;99.90
60309;DHT22;50313;52.894;6.492;2023-03-01T10:28:41;4.50;99.90
60309;DHT22;50313;52.894;6.492;2023-03-01T10:31:24;4.70;99.90
60309;DHT22;50313;52.894;6.492;2023-03-01T10:33:55;4.60;99.90
60309;DHT22;50313;52.894;6.492;2023-03-01T10:36:23;4.60;99.90
60309;DHT22;50313;52.894;6.492;2023-03-01T10:38:50;4.80;99.90
60309;DHT22;50313;52.894;6.492;2023-03-01T10:41:18;4.90;99.90
60309;DHT22;50313;52.894;6.492;2023-03-01T10:43:55;5.00;99.90
60309;DHT22;50313;52.894;6.492;2023-03-01T10:46:32;5.10;99.90
60309;DHT22;50313;52.894;6.492;2023-03-01T10:49:17;5.20;99.90
60309;DHT22;50313;52.894;6.492;2023-03-01T10:51:45;5.30;99.90
60309;DHT22;50313;52.894;6.492;2023-03-01T10:56:53;5.40;99.90
60309;DHT22;50313;52.894;6.492;2023-03-01T10:59:34;5.50;99.90
60309;DHT22;50313;52.894;6.492;2023-03-01T11:02:22;5.50;99.90
60309;DHT22;50313;52.894;6.492;2023-03-01T11:05:03;5.50;99.90
60309;DHT22;50313;52.894;6.492;2023-03-01T11:07:49;5.60;99.90
60309;DHT22;50313;52.894;6.492;2023-03-01T11:10:24;5.70;99.90
60309;DHT22;50313;52.894;6.492;2023-03-01T11:12:54;5.70;99.90
60309;DHT22;50313;52.894;6.492;2023-03-01T11:15:30;5.70;99.90
60309;DHT22;50313;52.894;6.492;2023-03-01T11:17:56;5.80;99.90
60309;DHT22;50313;52.894;6.492;2023-03-01T11:20:35;5.80;99.90
60309;DHT22;50313;52.894;6.492;2023-03-01T11:23:05;5.90;99.90
60309;DHT22;50313;52.894;6.492;2023-03-01T11:25:36;5.90;99.90
60309;DHT22;50313;52.894;6.492;2023-03-01T11:28:04;6.00;99.90
60309;DHT22;50313;52.894;6.492;2023-03-01T11:35:57;6.10;99.90
60309;DHT22;50313;52.894;6.492;2023-03-01T11:38:26;6.00;99.90
60309;DHT22;50313;52.894;6.492;2023-03-01T11:41:10;6.20;99.80
60309;DHT22;50313;52.894;6.492;2023-03-01T11:43:52;6.20;99.90
60309;DHT22;50313;52.894;6.492;2023-03-01T11:47:03;6.20;99.00
60309;DHT22;50313;52.894;6.492;2023-03-01T11:58:38;6.30;98.30
60309;DHT22;50313;52.894;6.492;2023-03-01T12:06:46;6.40;97.10
60309;DHT22;50313;52.894;6.492;2023-03-01T12:29:02;6.70;98.90
60309;DHT22;50313;52.894;6.492;2023-03-01T12:42:37;6.90;98.10
60309;DHT22;50313;52.894;6.492;2023-03-01T12:50:23;7.00;98.50
60309;DHT22;50313;52.894;6.492;2023-03-01T12:52:55;7.00;98.00
60309;DHT22;50313;52.894;6.492;2023-03-01T12:55:35;7.00;98.20
60309;DHT22;50313;52.894;6.492;2023-03-01T13:01:28;7.00;98.20
60309;DHT22;50313;52.894;6.492;2023-03-01T13:05:06;7.10;97.80
60309;DHT22;50313;52.894;6.492;2023-03-01T13:08:39;7.10;97.40
60309;DHT22;50313;52.894;6.492;2023-03-01T13:11:01;7.20;98.00
60309;DHT22;50313;52.894;6.492;2023-03-01T13:13:29;7.20;98.40
60309;DHT22;50313;52.894;6.492;2023-03-01T13:15:56;7.10;98.60
60309;DHT22;50313;52.894;6.492;2023-03-01T13:20:56;7.10;98.90
60309;DHT22;50313;52.894;6.492;2023-03-01T13:28:38;7.10;98.70
60309;DHT22;50313;52.894;6.492;2023-03-01T13:34:02;7.20;98.40
60309;DHT22;50313;52.894;6.492;2023-03-01T13:44:21;7.30;98.50
60309;DHT22;50313;52.894;6.492;2023-03-01T13:50:00;7.50;99.00
60309;DHT22;50313;52.894;6.492;2023-03-01T13:54:56;8.10;97.90
60309;DHT22;50313;52.894;6.492;2023-03-01T13:57:26;8.30;97.30
60309;DHT22;50313;52.894;6.492;2023-03-01T13:59:53;8.50;97.00
60309;DHT22;50313;52.894;6.492;2023-03-01T14:02:19;8.60;96.90
60309;DHT22;50313;52.894;6.492;2023-03-01T14:04:56;8.60;96.40
60309;DHT22;50313;52.894;6.492;2023-03-01T14:07:23;8.60;96.30
60309;DHT22;50313;52.894;6.492;2023-03-01T14:09:54;8.80;95.90
60309;DHT22;50313;52.894;6.492;2023-03-01T14:12:39;8.80;95.30
60309;DHT22;50313;52.894;6.492;2023-03-01T14:18:13;9.00;91.90
60309;DHT22;50313;52.894;6.492;2023-03-01T14:20:42;9.10;91.80
60309;DHT22;50313;52.894;6.492;2023-03-01T14:23:14;9.20;92.40
60309;DHT22;50313;52.894;6.492;2023-03-01T14:25:54;9.50;90.90
60309;DHT22;50313;52.894;6.492;2023-03-01T14:28:25;9.50;90.00
60309;DHT22;50313;52.894;6.492;2023-03-01T14:30:57;9.50;90.10
60309;DHT22;50313;52.894;6.492;2023-03-01T14:33:29;9.70;90.80
60309;DHT22;50313;52.894;6.492;2023-03-01T14:36:00;9.70;90.10
60309;DHT22;50313;52.894;6.492;2023-03-01T14:38:44;9.90;87.90
60309;DHT22;50313;52.894;6.492;2023-03-01T14:41:14;10.10;89.80
60309;DHT22;50313;52.894;6.492;2023-03-01T14:43:47;9.80;87.70
60309;DHT22;50313;52.894;6.492;2023-03-01T14:46:24;9.90;89.90
60309;DHT22;50313;52.894;6.492;2023-03-01T14:49:05;10.00;90.20
60309;DHT22;50313;52.894;6.492;2023-03-01T14:51:40;10.10;90.80
60309;DHT22;50313;52.894;6.492;2023-03-01T14:54:20;10.30;90.00
60309;DHT22;50313;52.894;6.492;2023-03-01T14:56:48;10.20;89.20
60309;DHT22;50313;52.894;6.492;2023-03-01T14:59:15;10.10;87.10
60309;DHT22;50313;52.894;6.492;2023-03-01T15:01:44;9.80;88.60
60309;DHT22;50313;52.894;6.492;2023-03-01T15:04:12;9.90;88.20
60309;DHT22;50313;52.894;6.492;2023-03-01T15:06:39;10.40;86.60
60309;DHT22;50313;52.894;6.492;2023-03-01T15:09:05;10.10;86.50
60309;DHT22;50313;52.894;6.492;2023-03-01T15:11:33;10.10;86.70
60309;DHT22;50313;52.894;6.492;2023-03-01T15:13:59;10.50;86.70
60309;DHT22;50313;52.894;6.492;2023-03-01T15:16:33;10.70;87.50
60309;DHT22;50313;52.894;6.492;2023-03-01T15:19:01;10.50;88.30
60309;DHT22;50313;52.894;6.492;2023-03-01T15:21:36;10.50;86.80
60309;DHT22;50313;52.894;6.492;2023-03-01T15:24:18;10.50;87.20
60309;DHT22;50313;52.894;6.492;2023-03-01T15:27:05;10.70;86.30
60309;DHT22;50313;52.894;6.492;2023-03-01T15:29:34;10.80;87.80
60309;DHT22;50313;52.894;6.492;2023-03-01T15:32:34;10.70;86.30
60309;DHT22;50313;52.894;6.492;2023-03-01T15:35:31;10.70;85.10
60309;DHT22;50313;52.894;6.492;2023-03-01T15:37:48;10.60;85.60
60309;DHT22;50313;52.894;6.492;2023-03-01T15:40:28;10.60;86.00
60309;DHT22;50313;52.894;6.492;2023-03-01T15:42:58;10.50;85.80
60309;DHT22;50313;52.894;6.492;2023-03-01T15:45:25;10.20;86.60
60309;DHT22;50313;52.894;6.492;2023-03-01T15:48:04;10.50;86.40
60309;DHT22;50313;52.894;6.492;2023-03-01T15:50:33;10.40;87.70
60309;DHT22;50313;52.894;6.492;2023-03-01T15:53:01;10.50;88.30
60309;DHT22;50313;52.894;6.492;2023-03-01T15:55:30;10.60;90.00
60309;DHT22;50313;52.894;6.492;2023-03-01T15:58:14;10.70;88.30
60309;DHT22;50313;52.894;6.492;2023-03-01T16:00:41;10.50;89.90
60309;DHT22;50313;52.894;6.492;2023-03-01T16:03:08;10.00;90.50
60309;DHT22;50313;52.894;6.492;2023-03-01T16:05:37;9.70;91.30
60309;DHT22;50313;52.894;6.492;2023-03-01T16:08:05;9.40;92.10
60309;DHT22;50313;52.894;6.492;2023-03-01T16:10:32;8.80;92.80
60309;DHT22;50313;52.894;6.492;2023-03-01T16:12:58;8.40;93.80
60309;DHT22;50313;52.894;6.492;2023-03-01T16:15:32;8.10;94.50
60309;DHT22;50313;52.894;6.492;2023-03-01T16:18:01;7.90;95.50
60309;DHT22;50313;52.894;6.492;2023-03-01T16:20:29;7.60;96.40
60309;DHT22;50313;52.894;6.492;2023-03-01T16:23:01;7.60;96.90
60309;DHT22;50313;52.894;6.492;2023-03-01T16:25:28;7.40;97.30
60309;DHT22;50313;52.894;6.492;2023-03-01T16:27:54;7.30;97.90
60309;DHT22;50313;52.894;6.492;2023-03-01T16:30:22;7.20;98.50
60309;DHT22;50313;52.894;6.492;2023-03-01T16:32:49;7.10;98.80
60309;DHT22;50313;52.894;6.492;2023-03-01T16:35:18;7.00;99.20
60309;DHT22;50313;52.894;6.492;2023-03-01T16:37:44;6.90;99.60
60309;DHT22;50313;52.894;6.492;2023-03-01T16:40:24;6.80;99.90
60309;DHT22;50313;52.894;6.492;2023-03-01T16:42:52;6.70;99.90
60309;DHT22;50313;52.894;6.492;2023-03-01T16:45:18;6.70;99.90
60309;DHT22;50313;52.894;6.492;2023-03-01T16:47:44;6.60;99.90
60309;DHT22;50313;52.894;6.492;2023-03-01T16:50:10;6.50;99.90
60309;DHT22;50313;52.894;6.492;2023-03-01T16:52:36;6.40;99.90
60309;DHT22;50313;52.894;6.492;2023-03-01T16:55:03;6.30;99.90
60309;DHT22;50313;52.894;6.492;2023-03-01T16:57:30;6.20;99.90
60309;DHT22;50313;52.894;6.492;2023-03-01T16:59:56;6.20;99.90
60309;DHT22;50313;52.894;6.492;2023-03-01T17:02:21;6.10;99.90
60309;DHT22;50313;52.894;6.492;2023-03-01T17:04:55;6.00;99.90
60309;DHT22;50313;52.894;6.492;2023-03-01T17:07:21;5.90;99.90
60309;DHT22;50313;52.894;6.492;2023-03-01T17:09:47;5.80;99.90
60309;DHT22;50313;52.894;6.492;2023-03-01T17:12:14;5.80;99.90
60309;DHT22;50313;52.894;6.492;2023-03-01T17:14:40;5.70;99.90
60309;DHT22;50313;52.894;6.492;2023-03-01T17:17:10;5.60;99.90
60309;DHT22;50313;52.894;6.492;2023-03-01T17:19:42;5.50;99.90
60309;DHT22;50313;52.894;6.492;2023-03-01T17:22:10;5.40;99.90
60309;DHT22;50313;52.894;6.492;2023-03-01T17:24:37;5.30;99.90
60309;DHT22;50313;52.894;6.492;2023-03-01T17:27:03;5.30;99.90
60309;DHT22;50313;52.894;6.492;2023-03-01T17:29:29;5.20;99.90
60309;DHT22;50313;52.894;6.492;2023-03-01T17:31:56;5.10;99.90
60309;DHT22;50313;52.894;6.492;2023-03-01T17:34:22;5.10;99.90
60309;DHT22;50313;52.894;6.492;2023-03-01T17:36:49;5.00;99.90
60309;DHT22;50313;52.894;6.492;2023-03-01T17:39:17;5.00;99.90
60309;DHT22;50313;52.894;6.492;2023-03-01T17:41:45;4.90;99.90